Main page
METAR-TAF:

METAR-TAF

Airports :

Mont-De-Marsan, France

latitude: 43-55N, longitude: 000-30W, elevation: 62 m

Current weather observation

The report was made 14 minutes ago, at 04:30 UTC
Calm wind
Temperature 5°C
Humidity 93%
Pressure 1011 hPa
Visibility 10 km or more
no clouds below 1500 m and no cumulonimbus

METAR: LFBM 270430Z AUTO 00000KT CAVOK 05/04 Q1011 NOSIG

Time: 06:44 (04:44 UTC)

Forecast

The report was made 2 hours and 44 minutes ago, at 02:00 UTC
Forecast valid from 27 at 03 UTC to 28 at 03 UTC
Wind 5 kt from the East/Northeast
Visibility 10 km or more
no clouds below 1500 m and no cumulonimbus
Becoming
from 27 at 07 UTC to 27 at 09 UTC
Wind 10 kt from the West/Northwest
Temporary
from 27 at 09 UTC to 27 at 15 UTC
Wind 10 kt from the West/Northwest with gusts up to 20 kt

TAF: LFBM 270200Z 2703/2803 06005KT CAVOK BECMG 2707/2709 30010KT TEMPO 2709/2715 30010G20KT

Weather observations and forecasts of more than 4000 airports (METAR and TAF reports).

The available stations are represented by yellow and red dots on the map.

Hover mouse over dot to see the name of the station.

Then click to see weather observations and forecasts.

To change the map : click on the green buttons with a black cross to zoom in, on the green button with a dash to zoom out, or on the green arrows for adjacent maps.


METAR-TAF: